createdAt,value
2023-02-04T00:02:21.318Z,8.60
2023-02-04T00:04:51.533Z,9.10
2023-02-04T00:07:21.428Z,12.07
2023-02-04T00:09:51.877Z,13.55
2023-02-04T00:12:23.399Z,11.97
2023-02-04T00:14:54.136Z,10.48
2023-02-04T00:17:24.477Z,11.65
2023-02-04T00:19:54.145Z,9.53
2023-02-04T00:22:23.300Z,8.95
2023-02-04T00:24:53.562Z,8.78
2023-02-04T00:27:23.056Z,9.15
2023-02-04T00:29:52.749Z,7.35
2023-02-04T00:32:22.564Z,9.50
2023-02-04T00:34:53.736Z,9.40
2023-02-04T00:37:23.485Z,8.63
2023-02-04T00:39:53.015Z,8.90
2023-02-04T00:42:23.201Z,12.28
2023-02-04T00:44:53.131Z,10.53
2023-02-04T00:47:22.820Z,12.25
2023-02-04T00:49:51.652Z,12.90
2023-02-04T00:52:21.389Z,12.30
2023-02-04T00:54:50.743Z,9.80
2023-02-04T00:57:20.142Z,12.15
2023-02-04T00:59:49.149Z,11.08
2023-02-04T01:02:19.146Z,8.20
2023-02-04T01:04:48.783Z,10.28
2023-02-04T01:07:21.246Z,9.10
2023-02-04T01:09:51.205Z,10.93
2023-02-04T01:12:22.840Z,9.90
2023-02-04T01:14:52.451Z,7.65
2023-02-04T01:17:24.578Z,14.73
2023-02-04T01:19:55.654Z,15.00
2023-02-04T01:22:25.282Z,11.38
2023-02-04T01:24:56.637Z,10.40
2023-02-04T01:27:45.730Z,12.50
2023-02-04T01:30:17.116Z,13.80
2023-02-04T01:32:48.314Z,10.00
2023-02-04T01:35:17.820Z,10.15
2023-02-04T01:37:47.574Z,10.48
2023-02-04T01:40:17.589Z,18.45
2023-02-04T01:42:49.112Z,16.35
2023-02-04T01:45:18.892Z,24.52
2023-02-04T01:47:48.985Z,18.20
2023-02-04T01:50:18.509Z,23.83
2023-02-04T01:52:48.130Z,20.62
2023-02-04T01:55:24.612Z,25.72
2023-02-04T01:57:55.680Z,29.32
2023-02-04T02:00:31.930Z,24.65
2023-02-04T02:03:03.388Z,17.20
2023-02-04T02:05:48.744Z,25.70
2023-02-04T02:08:18.709Z,25.72
2023-02-04T02:10:48.832Z,24.00
2023-02-04T02:13:18.690Z,23.35
2023-02-04T02:15:48.477Z,23.85
2023-02-04T02:18:19.120Z,25.45
2023-02-04T02:20:48.346Z,10.90
2023-02-04T02:23:49.557Z,23.20
2023-02-04T02:26:21.058Z,19.95
2023-02-04T02:28:52.260Z,21.37
2023-02-04T02:31:22.288Z,26.75
2023-02-04T02:33:51.910Z,12.25
2023-02-04T02:36:22.907Z,14.15
2023-02-04T02:38:55.326Z,6.85
2023-02-04T02:41:24.513Z,3.60
2023-02-04T02:43:55.857Z,2.50
2023-02-04T02:46:25.264Z,4.60
2023-02-04T02:48:55.459Z,3.92
2023-02-04T02:51:25.895Z,4.20
2023-02-04T02:53:55.409Z,3.30
2023-02-04T02:56:24.853Z,5.00
2023-02-04T02:58:54.776Z,3.60
2023-02-04T03:01:27.104Z,2.58
2023-02-04T03:03:56.930Z,3.55
2023-02-04T03:06:26.582Z,2.70
2023-02-04T03:08:56.905Z,6.40
2023-02-04T03:11:32.849Z,4.87
2023-02-04T03:14:03.422Z,3.72
2023-02-04T03:16:33.400Z,4.83
2023-02-04T03:19:03.075Z,4.12
2023-02-04T03:21:34.072Z,5.33
2023-02-04T03:24:06.276Z,4.42
2023-02-04T03:26:35.657Z,4.97
2023-02-04T03:29:08.271Z,4.00
2023-02-04T03:31:38.401Z,4.78
2023-02-04T03:34:07.427Z,8.73
2023-02-04T03:36:36.787Z,4.62
2023-02-04T03:39:06.865Z,6.30
2023-02-04T03:41:36.477Z,6.55
2023-02-04T03:44:06.031Z,5.17
2023-02-04T03:46:35.476Z,5.85
2023-02-04T03:49:05.960Z,11.73
2023-02-04T03:51:36.363Z,8.45
2023-02-04T03:54:06.377Z,5.30
2023-02-04T03:56:37.970Z,6.03
2023-02-04T03:59:07.298Z,3.72
2023-02-04T04:01:40.986Z,3.83
2023-02-04T04:04:10.499Z,5.12
2023-02-04T04:06:41.513Z,4.83
2023-02-04T04:09:11.773Z,4.92
2023-02-04T04:11:42.768Z,9.58
2023-02-04T04:14:13.996Z,5.70
2023-02-04T04:16:43.857Z,8.93
2023-02-04T04:19:14.822Z,7.05
2023-02-04T04:21:45.646Z,3.20
2023-02-04T04:24:16.366Z,4.87
2023-02-04T04:26:47.099Z,4.67
2023-02-04T04:29:17.026Z,8.40
2023-02-04T04:31:47.783Z,6.55
2023-02-04T04:34:17.321Z,4.08
2023-02-04T04:36:49.647Z,4.35
2023-02-04T04:39:22.401Z,4.62
2023-02-04T04:41:52.552Z,4.05
2023-02-04T04:44:22.853Z,4.40
2023-02-04T04:46:52.309Z,4.45
2023-02-04T04:49:21.983Z,7.35
2023-02-04T04:51:51.992Z,6.05
2023-02-04T04:54:21.175Z,5.17
2023-02-04T04:56:51.783Z,6.75
2023-02-04T04:59:21.676Z,5.47
2023-02-04T05:01:51.323Z,7.17
2023-02-04T05:04:21.918Z,7.87
2023-02-04T05:06:51.596Z,7.17
2023-02-04T05:09:22.303Z,7.55
2023-02-04T05:11:52.008Z,8.80
2023-02-04T05:14:22.056Z,11.10
2023-02-04T05:16:52.035Z,9.58
2023-02-04T05:19:41.492Z,8.13
2023-02-04T05:22:10.905Z,5.60
2023-02-04T05:24:40.392Z,6.40
2023-02-04T05:27:11.084Z,5.67
2023-02-04T05:29:41.359Z,7.45
2023-02-04T05:32:12.328Z,8.18
2023-02-04T05:34:42.500Z,6.20
2023-02-04T05:37:12.206Z,5.62
2023-02-04T05:39:41.613Z,6.35
2023-02-04T05:42:10.513Z,5.20
2023-02-04T05:44:40.913Z,6.97
2023-02-04T05:47:10.406Z,9.18
2023-02-04T05:49:41.368Z,5.90
2023-02-04T05:52:11.658Z,9.35
2023-02-04T05:54:41.457Z,6.33
2023-02-04T05:57:10.944Z,8.45
2023-02-04T05:59:40.513Z,8.63
2023-02-04T06:02:09.960Z,7.75
2023-02-04T06:04:39.355Z,7.08
2023-02-04T06:07:08.927Z,11.78
2023-02-04T06:09:39.779Z,8.33
2023-02-04T06:12:10.491Z,8.43
2023-02-04T06:14:40.173Z,7.42
2023-02-04T06:17:11.161Z,8.65
2023-02-04T06:19:41.113Z,11.43
2023-02-04T06:22:11.203Z,6.37
2023-02-04T06:24:42.753Z,10.45
2023-02-04T06:27:11.957Z,14.33
2023-02-04T06:29:41.192Z,9.85
2023-02-04T06:32:10.641Z,7.53
2023-02-04T06:34:40.252Z,8.53
2023-02-04T06:37:09.967Z,6.75
2023-02-04T06:39:40.338Z,8.20
2023-02-04T06:42:10.413Z,7.85
2023-02-04T06:44:40.146Z,5.15
2023-02-04T06:47:09.322Z,6.78
2023-02-04T06:49:39.245Z,8.25
2023-02-04T06:52:08.919Z,5.72
2023-02-04T06:54:39.767Z,7.03
2023-02-04T06:57:09.475Z,5.95
2023-02-04T06:59:39.948Z,7.05
2023-02-04T07:02:11.070Z,6.08
2023-02-04T07:04:42.143Z,5.70
2023-02-04T07:07:12.035Z,3.98
2023-02-04T07:09:42.532Z,7.40
2023-02-04T07:12:12.042Z,6.62
2023-02-04T07:14:43.023Z,7.37
2023-02-04T07:17:14.067Z,7.25
2023-02-04T07:19:44.421Z,7.33
2023-02-04T07:22:13.709Z,5.00
2023-02-04T07:24:45.225Z,6.75
2023-02-04T07:27:14.613Z,9.83
2023-02-04T07:29:44.120Z,5.92
2023-02-04T07:32:13.910Z,5.95
2023-02-04T07:34:44.668Z,7.08
2023-02-04T07:37:15.113Z,5.60
2023-02-04T07:39:44.576Z,6.47
2023-02-04T07:42:15.869Z,7.25
2023-02-04T07:44:48.419Z,7.12
2023-02-04T07:47:18.668Z,5.60
2023-02-04T07:49:48.600Z,8.18
2023-02-04T07:52:18.520Z,7.92
2023-02-04T07:54:48.301Z,8.43
2023-02-04T07:57:19.641Z,5.80
2023-02-04T07:59:48.243Z,5.03
2023-02-04T08:02:17.223Z,5.58
2023-02-04T08:04:47.059Z,5.40
2023-02-04T08:07:18.182Z,5.70
2023-02-04T08:09:47.808Z,6.05
2023-02-04T08:12:17.591Z,4.15
2023-02-04T08:14:47.885Z,5.35
2023-02-04T08:17:18.176Z,3.92
2023-02-04T08:19:47.694Z,3.05
2023-02-04T08:22:19.217Z,5.05
2023-02-04T08:24:48.789Z,5.85
2023-02-04T08:27:19.339Z,3.92
2023-02-04T08:29:49.593Z,5.25
2023-02-04T08:32:20.226Z,14.25
2023-02-04T08:34:51.043Z,4.78
2023-02-04T08:37:20.258Z,5.62
2023-02-04T10:15:22.103Z,2.97
2023-02-04T10:17:56.094Z,4.05
2023-02-04T10:20:25.893Z,4.10
2023-02-04T10:22:56.075Z,6.15
2023-02-04T10:25:26.743Z,4.90
2023-02-04T10:28:00.492Z,3.00
2023-02-04T10:30:34.025Z,4.40
2023-02-04T10:33:15.283Z,3.33
2023-02-04T10:35:48.174Z,5.60
2023-02-04T10:38:16.625Z,6.95
2023-02-04T10:40:47.047Z,3.55
2023-02-04T10:43:21.612Z,4.70
2023-02-04T10:45:58.583Z,7.45
2023-02-04T10:48:30.089Z,4.30
2023-02-04T10:50:59.425Z,5.45
2023-02-04T10:53:46.579Z,5.45
2023-02-04T10:56:20.691Z,3.60
2023-02-04T10:58:50.111Z,5.20
2023-02-04T11:01:18.889Z,6.60
2023-02-04T11:03:48.857Z,3.70
2023-02-04T11:06:23.854Z,4.53
2023-02-04T11:08:54.975Z,4.97
2023-02-04T11:11:25.901Z,5.58
2023-02-04T11:13:59.313Z,4.53
2023-02-04T11:16:32.566Z,4.72
2023-02-04T11:19:12.583Z,5.53
2023-02-04T11:21:45.375Z,5.03
2023-02-04T11:24:20.089Z,6.60
2023-02-04T11:26:51.698Z,6.15
2023-02-04T11:29:37.306Z,4.33
2023-02-04T11:32:35.825Z,5.40
2023-02-04T11:35:18.911Z,4.78
2023-02-04T11:37:49.109Z,3.55
2023-02-04T11:40:30.274Z,7.35
2023-02-04T11:43:11.364Z,4.37
2023-02-04T11:45:40.353Z,4.72
2023-02-04T11:48:20.240Z,6.35
2023-02-04T11:50:58.815Z,3.10
2023-02-04T11:53:31.644Z,3.20
2023-02-04T11:56:02.214Z,3.77
2023-02-04T11:58:31.326Z,4.45
2023-02-04T12:01:00.221Z,2.90
2023-02-04T12:03:31.505Z,6.60
2023-02-04T12:06:00.466Z,2.58
2023-02-04T12:08:33.824Z,3.65
2023-02-04T12:11:12.132Z,3.92
2023-02-04T12:13:52.029Z,7.53
2023-02-04T12:16:23.802Z,4.80
2023-02-04T12:18:54.951Z,4.45
2023-02-04T12:21:24.090Z,5.70
2023-02-04T12:23:52.940Z,4.05
2023-02-04T12:26:22.034Z,4.37
2023-02-04T12:28:50.689Z,4.55
2023-02-04T12:31:19.840Z,4.40
2023-02-04T12:33:48.926Z,4.87
2023-02-04T12:36:17.991Z,4.30
2023-02-04T12:38:47.069Z,5.78
2023-02-04T12:41:16.523Z,5.33
2023-02-04T12:43:46.477Z,6.70
2023-02-04T12:46:15.022Z,5.10
2023-02-04T12:48:43.885Z,3.85
2023-02-04T12:51:14.792Z,3.22
2023-02-04T12:53:43.719Z,4.23
2023-02-04T12:56:12.696Z,4.67
2023-02-04T12:58:41.633Z,6.30
2023-02-04T13:01:10.264Z,3.05
2023-02-04T13:03:39.778Z,3.20
2023-02-04T13:06:08.599Z,2.90
2023-02-04T13:08:37.878Z,4.17
2023-02-04T13:11:07.005Z,3.15
2023-02-04T13:13:36.700Z,3.52
2023-02-04T13:16:08.952Z,2.33
2023-02-04T13:18:39.274Z,3.55
2023-02-04T13:21:08.317Z,3.52
2023-02-04T13:23:37.422Z,3.30
2023-02-04T13:26:08.609Z,2.55
2023-02-04T13:28:37.415Z,3.10
2023-02-04T13:31:07.513Z,4.50
2023-02-04T13:33:37.639Z,4.00
2023-02-04T13:36:10.098Z,3.33
2023-02-04T13:38:42.430Z,2.83
2023-02-04T13:41:11.656Z,2.08
2023-02-04T13:43:40.800Z,3.72
2023-02-04T13:46:10.369Z,4.75
2023-02-04T13:48:39.152Z,2.55
2023-02-04T13:51:09.761Z,3.15
2023-02-04T13:53:39.020Z,3.55
2023-02-04T13:56:09.282Z,5.65
2023-02-04T13:58:39.667Z,3.67
2023-02-04T14:01:08.459Z,1.37
2023-02-04T14:03:37.675Z,2.65
2023-02-04T14:06:07.250Z,4.08
2023-02-04T14:08:36.185Z,4.53
2023-02-04T14:11:07.388Z,5.03
2023-02-04T14:13:38.092Z,2.95
2023-02-04T14:16:09.463Z,2.98
2023-02-04T14:18:38.289Z,3.02
2023-02-04T14:21:07.750Z,3.05
2023-02-04T14:23:39.076Z,3.35
2023-02-04T14:26:08.118Z,4.97
2023-02-04T14:28:37.438Z,4.08
2023-02-04T14:31:07.439Z,8.85
2023-02-04T14:33:37.368Z,3.83
2023-02-04T14:36:06.765Z,1.72
2023-02-04T14:38:35.815Z,3.83
2023-02-04T14:41:04.890Z,3.17
2023-02-04T14:43:35.631Z,6.33
2023-02-04T14:46:08.016Z,5.60
2023-02-04T14:48:37.768Z,1.55
2023-02-04T14:51:07.172Z,2.52
2023-02-04T14:53:35.911Z,6.83
2023-02-04T14:56:04.926Z,4.00
2023-02-04T14:58:34.100Z,2.22
2023-02-04T15:01:03.055Z,6.33
2023-02-04T15:03:37.580Z,9.03
2023-02-04T15:06:08.334Z,4.42
2023-02-04T15:08:37.423Z,5.47
2023-02-04T15:11:08.129Z,4.00
2023-02-04T15:13:38.271Z,2.30
2023-02-04T15:16:07.341Z,3.90
2023-02-04T15:18:36.990Z,5.28
2023-02-04T15:21:07.935Z,5.37
2023-02-04T15:23:36.976Z,3.95
2023-02-04T15:26:06.128Z,5.90
2023-02-04T15:28:37.069Z,3.40
2023-02-04T15:31:05.945Z,5.53
2023-02-04T15:33:36.163Z,4.03
2023-02-04T15:36:06.102Z,5.00
2023-02-04T15:38:35.403Z,3.87
2023-02-04T15:41:06.100Z,3.98
2023-02-04T15:43:35.777Z,2.75
2023-02-04T15:46:06.346Z,5.25
2023-02-04T15:48:35.680Z,4.67
2023-02-04T15:51:05.653Z,6.40
2023-02-04T15:53:37.510Z,5.72
2023-02-04T15:56:07.299Z,7.53
2023-02-04T15:58:37.790Z,5.58
2023-02-04T16:01:06.847Z,7.55
2023-02-04T17:28:58.212Z,6.53
2023-02-04T17:31:28.856Z,3.40
2023-02-04T17:33:59.590Z,3.90
2023-02-04T17:36:31.168Z,5.28
2023-02-04T17:39:00.798Z,12.13
2023-02-04T17:41:30.950Z,11.93
2023-02-04T17:44:01.142Z,12.07
2023-02-04T17:46:31.336Z,5.42
2023-02-04T17:49:01.583Z,7.62
2023-02-04T17:51:30.978Z,6.47
2023-02-04T17:54:00.155Z,5.65
2023-02-04T17:56:29.701Z,8.78
2023-02-04T17:58:58.541Z,5.35
2023-02-04T18:01:27.567Z,5.15
2023-02-04T18:03:57.147Z,7.67
2023-02-04T18:06:29.423Z,6.58
2023-02-04T18:09:03.243Z,7.30
2023-02-04T18:11:36.156Z,5.37
2023-02-04T18:14:17.150Z,7.83
2023-02-04T18:16:46.286Z,6.05
2023-02-04T18:19:21.552Z,5.42
2023-02-04T18:21:51.075Z,6.42
2023-02-04T18:24:31.518Z,4.87
2023-02-04T18:27:01.905Z,5.55
2023-02-04T18:29:37.078Z,9.98
2023-02-04T18:32:26.696Z,10.35
2023-02-04T18:34:59.241Z,4.60
2023-02-04T18:37:36.320Z,6.55
2023-02-04T18:42:46.579Z,5.28
2023-02-04T18:45:27.574Z,9.85
2023-02-04T18:48:00.835Z,4.58
2023-02-04T18:50:32.871Z,6.92
2023-02-04T18:53:18.352Z,5.30
2023-02-04T18:55:54.946Z,4.42
2023-02-04T18:58:31.792Z,5.75
2023-02-04T19:04:00.807Z,3.80
2023-02-04T19:06:43.225Z,4.40
2023-02-04T19:09:20.915Z,3.85
2023-02-04T19:11:51.909Z,5.22
2023-02-04T19:14:38.801Z,3.33
2023-02-04T19:17:28.520Z,4.50
2023-02-04T19:20:21.236Z,3.58
2023-02-04T19:22:54.793Z,5.50
2023-02-04T19:25:35.858Z,6.12
2023-02-04T19:28:16.739Z,10.43
2023-02-04T19:30:50.265Z,3.40
2023-02-04T19:33:24.685Z,5.78
2023-02-04T19:35:54.709Z,5.65
2023-02-04T19:38:38.441Z,4.08
2023-02-04T19:41:27.636Z,3.58
2023-02-04T19:44:08.392Z,10.28
2023-02-04T19:46:38.557Z,4.70
2023-02-04T19:49:26.217Z,3.42
2023-02-04T19:51:57.755Z,3.80
2023-02-04T19:54:38.294Z,5.08
2023-02-04T19:57:19.084Z,3.47
2023-02-04T19:59:47.896Z,4.05
2023-02-04T20:02:38.322Z,6.28
2023-02-04T20:05:19.678Z,4.92
2023-02-04T20:07:49.808Z,3.90
2023-02-04T20:10:23.403Z,4.72
2023-02-04T20:13:00.931Z,5.83
2023-02-04T20:15:31.285Z,3.60
2023-02-04T20:18:00.031Z,6.20
2023-02-04T20:20:32.204Z,3.58
2023-02-04T20:23:02.798Z,5.80
2023-02-04T20:25:45.639Z,7.40
2023-02-04T20:28:40.432Z,5.30
2023-02-04T20:31:26.216Z,3.50
2023-02-04T20:33:59.303Z,3.98
2023-02-04T20:36:40.964Z,7.45
2023-02-04T20:39:29.691Z,5.65
2023-02-04T20:42:20.906Z,4.62
2023-02-04T20:44:50.053Z,4.67
2023-02-04T20:47:21.444Z,6.95
2023-02-04T20:49:58.065Z,3.60
2023-02-04T20:52:48.320Z,4.72
2023-02-04T20:55:30.077Z,3.33
2023-02-04T20:58:23.844Z,2.87
2023-02-04T21:00:54.197Z,3.87
2023-02-04T21:03:29.645Z,4.37
2023-02-04T21:06:00.568Z,4.67
2023-02-04T21:08:45.482Z,3.62
2023-02-04T21:11:15.782Z,3.80
2023-02-04T21:14:07.042Z,3.90
2023-02-04T21:16:38.874Z,3.17
2023-02-04T21:19:07.618Z,4.60
2023-02-04T21:21:38.798Z,4.10
2023-02-04T21:24:08.078Z,3.10
2023-02-04T21:26:37.522Z,4.03
2023-02-04T21:29:06.937Z,5.78
2023-02-04T21:31:35.951Z,2.72
2023-02-04T21:34:06.759Z,2.55
2023-02-04T21:36:37.399Z,1.70
2023-02-04T21:39:05.994Z,2.72
2023-02-04T21:41:35.641Z,2.72
2023-02-04T21:44:04.783Z,1.65
2023-02-04T21:46:35.557Z,3.08
2023-02-04T21:49:06.441Z,2.98
2023-02-04T21:51:35.621Z,2.47
2023-02-04T21:54:05.210Z,1.90
2023-02-04T21:56:34.979Z,3.30
2023-02-04T21:59:04.290Z,2.52
2023-02-04T22:01:35.514Z,5.17
2023-02-04T22:04:04.210Z,3.77
2023-02-04T22:06:34.249Z,3.65
2023-02-04T22:09:03.498Z,2.47
2023-02-04T22:11:32.334Z,2.87
2023-02-04T22:14:05.642Z,2.52
2023-02-04T22:16:37.212Z,8.60
2023-02-04T22:19:06.360Z,4.05
2023-02-04T22:21:37.864Z,2.02
2023-02-04T22:24:09.767Z,3.00
2023-02-04T22:26:39.157Z,3.30
2023-02-04T22:29:08.068Z,2.22
2023-02-04T22:31:40.936Z,4.17
2023-02-04T22:34:10.166Z,1.90
2023-02-04T22:36:39.268Z,3.70
2023-02-04T22:39:09.263Z,4.17
2023-02-04T22:41:38.491Z,1.98
2023-02-04T22:44:07.601Z,3.02
2023-02-04T22:46:36.820Z,2.83
2023-02-04T22:49:05.917Z,2.08
2023-02-04T22:51:36.594Z,3.35
2023-02-04T22:54:05.611Z,2.92
2023-02-04T22:56:36.677Z,2.72
2023-02-04T22:59:05.822Z,3.12
2023-02-04T23:01:35.342Z,3.45
2023-02-04T23:04:05.285Z,1.95
2023-02-04T23:06:34.441Z,2.42
2023-02-04T23:09:03.648Z,3.15
2023-02-04T23:11:32.415Z,2.77
2023-02-04T23:14:02.809Z,4.70
2023-02-04T23:16:32.463Z,2.85
2023-02-04T23:19:01.409Z,3.52
2023-02-04T23:21:30.257Z,2.75
2023-02-04T23:24:00.034Z,2.70
2023-02-04T23:26:28.692Z,3.72
2023-02-04T23:28:58.062Z,3.22
2023-02-04T23:31:27.654Z,3.22
2023-02-04T23:33:56.780Z,3.65
2023-02-04T23:36:25.743Z,6.58
2023-02-04T23:38:54.810Z,3.65
2023-02-04T23:41:23.439Z,3.17
2023-02-04T23:43:52.228Z,3.17
2023-02-04T23:46:21.054Z,4.15
2023-02-04T23:48:49.870Z,5.28
2023-02-04T23:51:19.824Z,3.17
2023-02-04T23:53:49.008Z,3.33
2023-02-04T23:56:17.742Z,3.27
2023-02-04T23:58:46.360Z,4.00
